Time;durP1;ratioP1;P1;durP2;ratioP2;P2;SDS_P1;SDS_P2;PMS_P1;PMS_P2;Temp;Humidity;BMP_temperature;BMP_pressure;BME280_temperature;BME280_humidity;BME280_pressure;Samples;Min_cycle;Max_cycle;Signal;HPM_P1;HPM_P2
2023/02/27 00:00:41;;;;;;;0.30;0.30;;;-2.50;99.90;;;;;;5056066;28;20449;-76
2023/02/27 00:03:08;;;;;;;11.43;1.70;;;-2.50;99.90;;;;;;5056384;28;20442;-76
2023/02/27 00:05:35;;;;;;;0.30;0.30;;;-2.50;99.90;;;;;;5056327;28;20451;-76
2023/02/27 00:08:01;;;;;;;0.40;0.40;;;-2.50;99.90;;;;;;5056106;28;20838;-76
2023/02/27 00:10:28;;;;;;;0.30;0.20;;;-2.50;99.90;;;;;;5056224;28;20423;-76
2023/02/27 00:12:55;;;;;;;0.50;0.50;;;-2.50;99.90;;;;;;5056174;28;20421;-76
2023/02/27 00:15:23;;;;;;;0.30;0.30;;;-2.50;99.90;;;;;;5055793;28;20449;-76
2023/02/27 00:17:50;;;;;;;0.30;0.30;;;-2.60;99.90;;;;;;5056080;28;20459;-76
2023/02/27 00:20:18;;;;;;;0.30;0.30;;;-2.60;99.90;;;;;;5056008;28;20458;-76
2023/02/27 00:22:46;;;;;;;0.30;0.30;;;-2.60;99.90;;;;;;5055058;28;20438;-76
2023/02/27 00:25:13;;;;;;;0.30;0.30;;;-2.60;99.90;;;;;;5055988;28;20453;-76
2023/02/27 00:27:41;;;;;;;0.30;0.30;;;-2.60;99.90;;;;;;5056092;28;20463;-76
2023/02/27 00:30:11;;;;;;;0.40;0.40;;;-2.50;99.90;;;;;;5055570;28;20413;-76
2023/02/27 00:32:40;;;;;;;0.40;0.40;;;-2.50;99.90;;;;;;5055883;28;20401;-76
2023/02/27 00:35:09;;;;;;;0.30;0.30;;;-2.60;99.90;;;;;;5056021;28;20450;-76
2023/02/27 00:37:36;;;;;;;0.30;0.30;;;-2.60;99.90;;;;;;5055247;28;21002;-76
2023/02/27 00:40:04;;;;;;;0.30;0.30;;;-2.60;99.90;;;;;;5056254;28;20450;-76
2023/02/27 00:42:31;;;;;;;0.50;0.50;;;-2.60;99.90;;;;;;5055608;28;20469;-76
2023/02/27 00:44:57;;;;;;;0.30;0.20;;;-2.60;99.90;;;;;;5055628;28;20538;-76
2023/02/27 00:47:24;;;;;;;0.30;0.30;;;-2.60;99.90;;;;;;5055097;28;20456;-76
2023/02/27 00:49:52;;;;;;;0.30;0.30;;;-2.60;99.90;;;;;;5055153;28;20816;-76
2023/02/27 00:52:19;;;;;;;0.30;0.30;;;-2.60;99.90;;;;;;5055502;28;20808;-76
2023/02/27 00:54:46;;;;;;;0.30;0.30;;;-2.50;99.90;;;;;;5055439;28;20427;-76
2023/02/27 00:57:13;;;;;;;0.37;0.37;;;-2.50;99.90;;;;;;5055616;28;20463;-76
2023/02/27 00:59:39;;;;;;;0.30;0.30;;;-2.50;99.90;;;;;;5055339;28;20478;-76
2023/02/27 01:02:06;;;;;;;0.30;0.30;;;-2.60;99.90;;;;;;5055243;28;20460;-76
2023/02/27 01:04:33;;;;;;;0.30;0.30;;;-2.60;99.90;;;;;;5055264;28;20424;-76
2023/02/27 01:07:01;;;;;;;0.30;0.30;;;-2.50;99.90;;;;;;5055032;28;20477;-76
2023/02/27 01:09:28;;;;;;;0.33;0.33;;;-2.50;99.90;;;;;;5055136;28;20525;-76
2023/02/27 01:11:56;;;;;;;0.30;0.30;;;-2.50;99.90;;;;;;5055089;28;20448;-76
2023/02/27 01:14:23;;;;;;;0.30;0.30;;;-2.50;99.90;;;;;;5054762;28;20875;-76
2023/02/27 01:16:50;;;;;;;0.30;0.30;;;-2.50;99.90;;;;;;5054972;28;20430;-76
2023/02/27 01:19:16;;;;;;;0.30;0.30;;;-2.50;99.90;;;;;;5054937;28;20455;-75
2023/02/27 01:21:43;;;;;;;0.30;0.30;;;-2.50;99.90;;;;;;5054584;28;20449;-76
2023/02/27 01:24:12;;;;;;;0.30;0.30;;;-2.50;99.90;;;;;;5054826;28;20447;-76
2023/02/27 01:26:39;;;;;;;0.30;0.30;;;-2.60;99.90;;;;;;5054744;28;20796;-76
2023/02/27 01:29:06;;;;;;;0.30;0.30;;;-2.60;99.90;;;;;;5054646;28;20456;-76
2023/02/27 01:31:32;;;;;;;0.30;0.30;;;-2.60;99.90;;;;;;5054709;28;20451;-76
2023/02/27 01:33:59;;;;;;;0.30;0.30;;;-2.60;99.90;;;;;;5054349;28;20448;-76
2023/02/27 01:36:26;;;;;;;0.73;0.73;;;-2.60;99.90;;;;;;5054582;28;20446;-76
2023/02/27 01:38:53;;;;;;;0.30;0.30;;;-2.70;99.90;;;;;;5054082;28;20490;-76
2023/02/27 01:41:21;;;;;;;0.30;0.30;;;-2.70;99.90;;;;;;5054508;28;20446;-76
2023/02/27 01:43:56;;;;;;;0.30;0.30;;;-2.70;99.90;;;;;;5054478;28;20421;-76
2023/02/27 01:46:23;;;;;;;0.30;0.20;;;-2.70;99.90;;;;;;5054138;28;20973;-76
2023/02/27 01:48:53;;;;;;;0.30;0.30;;;-2.70;99.90;;;;;;5054229;28;20453;-76
2023/02/27 01:51:21;;;;;;;0.30;0.30;;;-2.70;99.90;;;;;;5054315;28;20464;-76
2023/02/27 01:53:52;;;;;;;0.30;0.30;;;-2.70;99.90;;;;;;5055329;28;20443;-76
2023/02/27 01:56:23;;;;;;;0.30;0.30;;;-2.70;99.90;;;;;;5053925;28;20939;-76
2023/02/27 01:58:52;;;;;;;0.30;0.30;;;-2.70;99.90;;;;;;5054417;28;20444;-75
2023/02/27 02:01:20;;;;;;;0.30;0.30;;;-2.70;99.90;;;;;;5054114;28;20450;-76
2023/02/27 02:03:53;;;;;;;0.30;0.30;;;-2.70;99.90;;;;;;5054084;28;20436;-76
2023/02/27 02:06:21;;;;;;;0.30;0.30;;;-2.70;99.90;;;;;;5054065;28;20441;-76
2023/02/27 02:08:49;;;;;;;0.30;0.30;;;-2.70;99.90;;;;;;5053583;28;20985;-76
2023/02/27 02:11:19;;;;;;;0.30;0.30;;;-2.70;99.90;;;;;;5054216;28;20447;-76
2023/02/27 02:13:49;;;;;;;0.40;0.40;;;-2.70;99.90;;;;;;5053635;28;20941;-76
2023/02/27 02:16:39;;;;;;;0.30;0.30;;;-2.70;99.90;;;;;;5053932;28;20855;-76
2023/02/27 02:19:34;;;;;;;0.30;0.30;;;-2.70;99.90;;;;;;5053880;28;20427;-77
2023/02/27 02:22:40;;;;;;;0.47;0.47;;;-2.70;99.90;;;;;;5053850;28;20780;-76
2023/02/27 02:25:43;;;;;;;0.30;0.30;;;-2.70;99.90;;;;;;5053748;28;20457;-76
2023/02/27 02:28:23;;;;;;;0.30;0.30;;;-2.70;99.90;;;;;;5023123;28;20464;-76
2023/02/27 02:31:09;;;;;;;0.30;0.30;;;-2.70;99.90;;;;;;5053641;28;20932;-76
2023/02/27 02:34:05;;;;;;;0.30;0.30;;;-2.70;99.90;;;;;;5053665;28;20424;-76
2023/02/27 02:37:04;;;;;;;1.23;0.60;;;-2.80;99.90;;;;;;5053588;28;20462;-76
2023/02/27 02:39:54;;;;;;;0.30;0.30;;;-2.70;99.90;;;;;;5053540;28;20517;-76
2023/02/27 02:42:25;;;;;;;0.30;0.30;;;-2.80;99.90;;;;;;5053532;28;20442;-76
2023/02/27 02:45:00;;;;;;;0.30;0.30;;;-2.80;99.90;;;;;;5053506;28;20434;-76
2023/02/27 02:47:33;;;;;;;0.30;0.30;;;-2.80;99.90;;;;;;5052757;28;20845;-76
2023/02/27 02:50:06;;;;;;;0.40;0.40;;;-2.70;99.90;;;;;;5053479;28;20434;-75
2023/02/27 02:52:43;;;;;;;0.70;0.60;;;-2.70;99.90;;;;;;5053414;28;20438;-75
2023/02/27 02:55:18;;;;;;;0.30;0.30;;;-2.70;99.90;;;;;;5053412;28;20401;-76
2023/02/27 02:57:51;;;;;;;0.77;0.77;;;-2.70;99.90;;;;;;5053227;28;20440;-76
2023/02/27 03:00:21;;;;;;;0.30;0.30;;;-2.80;99.90;;;;;;5053323;28;20405;-76
2023/02/27 03:02:52;;;;;;;0.30;0.30;;;-2.80;99.90;;;;;;5053551;28;20453;-76
2023/02/27 03:05:24;;;;;;;0.30;0.30;;;-2.80;99.90;;;;;;5053574;28;20431;-76
2023/02/27 03:07:57;;;;;;;0.30;0.27;;;-2.80;99.90;;;;;;5052828;28;21059;-76
2023/02/27 03:10:30;;;;;;;0.30;0.30;;;-2.80;99.90;;;;;;5053215;28;20429;-76
2023/02/27 03:13:00;;;;;;;0.30;0.30;;;-2.70;99.90;;;;;;5052915;28;20409;-76
2023/02/27 03:15:30;;;;;;;0.30;0.30;;;-2.80;99.90;;;;;;5053205;28;20435;-76
2023/02/27 03:18:03;;;;;;;0.30;0.30;;;-2.80;99.90;;;;;;5053170;28;20466;-76
2023/02/27 03:20:35;;;;;;;0.30;0.30;;;-2.80;99.90;;;;;;5053198;28;20437;-76
2023/02/27 03:23:08;;;;;;;0.40;0.40;;;-2.80;99.90;;;;;;5053156;28;20498;-76
2023/02/27 03:25:37;;;;;;;0.40;0.40;;;-2.80;99.90;;;;;;5052997;28;20406;-76
2023/02/27 03:28:08;;;;;;;0.50;0.50;;;-2.80;99.90;;;;;;5053093;28;20460;-76
2023/02/27 03:30:37;;;;;;;0.30;0.30;;;-2.80;99.90;;;;;;5053026;28;20434;-76
2023/02/27 03:33:11;;;;;;;0.40;0.40;;;-2.80;99.90;;;;;;5052950;28;20449;-76
2023/02/27 03:35:47;;;;;;;0.30;0.30;;;-2.80;99.90;;;;;;5053009;28;20424;-75
2023/02/27 03:38:20;;;;;;;0.30;0.30;;;-2.80;99.90;;;;;;5052692;28;20477;-76
2023/02/27 03:40:56;;;;;;;0.40;0.40;;;-2.80;99.90;;;;;;5052886;28;20430;-76
2023/02/27 03:43:29;;;;;;;0.30;0.30;;;-2.90;99.90;;;;;;5052914;28;20529;-76
2023/02/27 03:46:02;;;;;;;0.30;0.30;;;-2.80;99.90;;;;;;5052901;28;20409;-76
2023/02/27 03:48:29;;;;;;;0.40;0.40;;;-2.80;99.90;;;;;;5052737;28;20461;-76
2023/02/27 03:50:57;;;;;;;0.30;0.30;;;-2.90;99.90;;;;;;5052793;28;20450;-76
2023/02/27 03:53:33;;;;;;;0.30;0.30;;;-2.80;99.90;;;;;;5052770;28;20449;-76
2023/02/27 03:56:04;;;;;;;0.50;0.50;;;-2.90;99.90;;;;;;5052844;28;20792;-76
2023/02/27 03:58:31;;;;;;;0.30;0.30;;;-2.90;99.90;;;;;;5055600;28;20462;-76
2023/02/27 04:00:58;;;;;;;0.30;0.30;;;-2.90;99.90;;;;;;5056117;28;20942;-76
2023/02/27 04:03:25;;;;;;;0.30;0.30;;;-2.90;99.90;;;;;;5056423;28;20445;-76
2023/02/27 04:05:52;;;;;;;0.30;0.30;;;-2.90;99.90;;;;;;5056082;28;20816;-76
2023/02/27 04:08:33;;;;;;;0.30;0.30;;;-2.90;99.90;;;;;;5056214;28;20460;-76
2023/02/27 04:11:23;;;;;;;0.30;0.30;;;-2.90;99.90;;;;;;5056305;28;20476;-76
2023/02/27 04:14:05;;;;;;;0.30;0.30;;;-2.90;99.90;;;;;;5056567;28;20438;-76
2023/02/27 04:16:55;;;;;;;0.30;0.30;;;-2.90;99.90;;;;;;5055817;28;20916;-76
2023/02/27 04:19:46;;;;;;;0.30;0.30;;;-2.90;99.90;;;;;;5056159;28;20423;-75
2023/02/27 04:22:21;;;;;;;0.30;0.30;;;-2.90;99.90;;;;;;5056073;28;20448;-76
2023/02/27 04:24:55;;;;;;;0.30;0.30;;;-2.90;99.90;;;;;;5056086;28;20424;-75
2023/02/27 04:27:32;;;;;;;0.37;0.37;;;-2.90;99.90;;;;;;5055930;28;20468;-76
2023/02/27 04:30:10;;;;;;;0.30;0.30;;;-2.90;99.90;;;;;;5055578;28;20441;-76
2023/02/27 04:32:43;;;;;;;0.30;0.20;;;-2.90;99.90;;;;;;5055568;28;20798;-76
2023/02/27 04:35:12;;;;;;;0.30;0.20;;;-2.90;99.90;;;;;;5055905;28;20452;-76
2023/02/27 04:37:48;;;;;;;0.30;0.30;;;-2.90;99.90;;;;;;5055220;28;20453;-76
2023/02/27 04:40:19;;;;;;;0.30;0.30;;;-3.00;99.90;;;;;;5055399;28;20938;-76
2023/02/27 04:42:53;;;;;;;0.30;0.30;;;-3.00;99.90;;;;;;5055337;28;20903;-76
2023/02/27 04:45:23;;;;;;;0.30;0.30;;;-3.00;99.90;;;;;;5055355;28;20955;-76
2023/02/27 04:47:55;;;;;;;0.40;0.40;;;-3.00;99.90;;;;;;5056003;28;20473;-76
2023/02/27 04:50:28;;;;;;;0.30;0.20;;;-3.00;99.90;;;;;;5055486;28;20445;-76
2023/02/27 04:53:02;;;;;;;0.30;0.30;;;-3.00;99.90;;;;;;5055493;28;20439;-76
2023/02/27 04:55:32;;;;;;;0.70;0.70;;;-2.90;99.90;;;;;;5055472;28;20812;-76
2023/02/27 04:58:04;;;;;;;0.40;0.40;;;-2.90;99.90;;;;;;5055382;28;20477;-76
2023/02/27 05:00:34;;;;;;;1.53;1.43;;;-3.00;99.90;;;;;;5055374;28;20397;-76
2023/02/27 05:03:06;;;;;;;0.40;0.40;;;-2.90;99.90;;;;;;5055302;28;20450;-76
2023/02/27 05:05:35;;;;;;;0.30;0.30;;;-2.90;99.90;;;;;;5055294;28;20420;-77
2023/02/27 05:08:06;;;;;;;0.30;0.30;;;-2.90;99.90;;;;;;5055166;28;20445;-76
2023/02/27 05:10:39;;;;;;;0.30;0.30;;;-3.00;99.90;;;;;;5054419;28;20462;-76
2023/02/27 05:13:13;;;;;;;0.30;0.30;;;-3.00;99.90;;;;;;5055153;28;20435;-76
2023/02/27 05:15:45;;;;;;;0.30;0.30;;;-3.00;99.90;;;;;;5055073;28;20437;-76
2023/02/27 05:18:15;;;;;;;0.30;0.30;;;-3.00;99.90;;;;;;5055220;28;20467;-76
2023/02/27 05:20:53;;;;;;;0.80;0.70;;;-3.00;99.90;;;;;;5055287;28;20795;-77
2023/02/27 05:23:26;;;;;;;0.30;0.30;;;-3.00;99.90;;;;;;5055000;28;20442;-76
2023/02/27 05:25:59;;;;;;;0.30;0.30;;;-3.00;99.90;;;;;;5054871;28;20435;-76
2023/02/27 05:28:34;;;;;;;0.83;0.83;;;-3.00;99.90;;;;;;5054444;28;21006;-76
2023/02/27 05:31:07;;;;;;;0.30;0.30;;;-3.00;99.90;;;;;;5054764;28;20431;-76
2023/02/27 05:33:38;;;;;;;0.53;0.53;;;-3.00;99.90;;;;;;5054455;28;20939;-76
2023/02/27 05:36:10;;;;;;;0.40;0.40;;;-3.00;99.90;;;;;;5054885;28;20450;-75
2023/02/27 05:38:41;;;;;;;0.30;0.30;;;-3.00;99.90;;;;;;5054577;28;20482;-76
2023/02/27 05:41:11;;;;;;;0.40;0.40;;;-3.00;99.90;;;;;;5054536;28;20446;-76
2023/02/27 05:43:44;;;;;;;0.30;0.30;;;-3.00;99.90;;;;;;5054573;28;20906;-75
2023/02/27 05:46:15;;;;;;;0.30;0.30;;;-3.00;99.90;;;;;;5054172;28;20430;-76
2023/02/27 05:48:47;;;;;;;0.30;0.30;;;-3.00;99.90;;;;;;5054320;28;20489;-76
2023/02/27 05:51:16;;;;;;;0.40;0.40;;;-3.00;99.90;;;;;;5054349;28;20430;-77
2023/02/27 05:53:48;;;;;;;0.30;0.30;;;-3.00;99.90;;;;;;5054360;28;20517;-76
2023/02/27 05:56:18;;;;;;;0.30;0.30;;;-3.00;99.90;;;;;;5054267;28;20412;-75
2023/02/27 05:58:51;;;;;;;0.30;0.30;;;-3.00;99.90;;;;;;5054956;28;20823;-76
2023/02/27 06:01:17;;;;;;;0.30;0.30;;;-3.10;99.90;;;;;;5054221;28;20492;-76
2023/02/27 06:03:44;;;;;;;0.40;0.40;;;-3.10;99.90;;;;;;5053800;28;20442;-76
2023/02/27 06:06:14;;;;;;;0.30;0.30;;;-3.10;99.90;;;;;;5054065;28;20443;-76
2023/02/27 06:08:41;;;;;;;0.30;0.30;;;-3.10;99.90;;;;;;5053845;28;20466;-76
2023/02/27 06:11:07;;;;;;;0.50;0.40;;;-3.10;99.90;;;;;;5053985;28;20453;-76
2023/02/27 06:13:34;;;;;;;0.30;0.30;;;-3.10;99.90;;;;;;5053964;28;20451;-76
2023/02/27 06:16:02;;;;;;;0.30;0.30;;;-3.10;99.90;;;;;;5053872;28;20469;-76
2023/02/27 06:18:29;;;;;;;0.30;0.30;;;-3.10;99.90;;;;;;5053499;28;20448;-76
2023/02/27 06:20:56;;;;;;;0.30;0.30;;;-3.10;99.90;;;;;;5052554;28;20950;-76
2023/02/27 06:23:23;;;;;;;0.30;0.30;;;-3.10;99.90;;;;;;5053492;28;20425;-76
2023/02/27 06:25:50;;;;;;;0.30;0.30;;;-3.20;99.90;;;;;;5053790;28;20421;-76
2023/02/27 06:28:16;;;;;;;0.30;0.30;;;-3.20;99.90;;;;;;5053657;28;20466;-76
2023/02/27 06:30:43;;;;;;;1.80;0.83;;;-3.20;99.90;;;;;;5053578;28;20459;-76
2023/02/27 06:33:12;;;;;;;0.30;0.30;;;-3.20;99.90;;;;;;5053316;28;20961;-76
2023/02/27 06:35:39;;;;;;;0.30;0.30;;;-3.20;99.90;;;;;;5053638;28;20487;-76
2023/02/27 06:38:05;;;;;;;0.30;0.30;;;-3.10;99.90;;;;;;5053172;28;21037;-76
2023/02/27 06:40:32;;;;;;;0.30;0.30;;;-3.20;99.90;;;;;;5053514;28;20443;-76
2023/02/27 06:42:59;;;;;;;0.30;0.30;;;-3.20;99.90;;;;;;5053190;28;20823;-76
2023/02/27 06:45:26;;;;;;;0.50;0.50;;;-3.20;99.90;;;;;;5053465;28;20451;-76
2023/02/27 06:47:52;;;;;;;0.40;0.40;;;-3.20;99.90;;;;;;5053431;28;20471;-76
2023/02/27 06:50:21;;;;;;;0.57;0.57;;;-3.10;99.90;;;;;;5053604;28;20462;-76
2023/02/27 06:52:47;;;;;;;0.30;0.30;;;-3.10;99.90;;;;;;5053346;28;20473;-76
2023/02/27 06:55:18;;;;;;;0.30;0.30;;;-3.10;99.90;;;;;;5053367;28;20446;-76
2023/02/27 06:57:46;;;;;;;0.30;0.30;;;-3.10;99.90;;;;;;5053317;28;20516;-76
2023/02/27 07:00:14;;;;;;;0.37;0.37;;;-3.00;99.90;;;;;;5053026;28;20853;-76
2023/02/27 07:02:40;;;;;;;0.30;0.30;;;-3.00;99.90;;;;;;5053259;28;20432;-76
2023/02/27 07:05:10;;;;;;;0.30;0.30;;;-2.90;99.90;;;;;;5053258;28;20420;-76
2023/02/27 07:07:38;;;;;;;0.30;0.30;;;-2.90;99.90;;;;;;5052883;28;20524;-72
2023/02/27 07:10:05;;;;;;;0.30;0.30;;;-2.80;99.90;;;;;;5053046;28;20485;-73
2023/02/27 07:12:32;;;;;;;0.30;0.30;;;-2.80;99.90;;;;;;5052997;28;20421;-73
2023/02/27 07:14:58;;;;;;;0.30;0.30;;;-2.70;99.90;;;;;;5052998;28;20868;-72
2023/02/27 07:17:25;;;;;;;0.30;0.30;;;-2.70;99.90;;;;;;5052916;28;20472;-72
2023/02/27 07:19:53;;;;;;;0.30;0.30;;;-2.60;99.90;;;;;;5052802;28;21031;-73
2023/02/27 07:22:20;;;;;;;0.30;0.30;;;-2.70;99.90;;;;;;5052783;28;20442;-72
2023/02/27 07:24:48;;;;;;;0.30;0.30;;;-2.60;99.90;;;;;;5052743;28;20446;-73
2023/02/27 07:27:14;;;;;;;0.30;0.30;;;-2.50;99.90;;;;;;5052934;28;20473;-72
2023/02/27 07:29:41;;;;;;;0.33;0.33;;;-2.50;99.90;;;;;;5052905;28;20474;-72
2023/02/27 07:32:08;;;;;;;0.30;0.30;;;-2.40;99.90;;;;;;5053764;28;20492;-72
2023/02/27 07:34:35;;;;;;;1.20;0.97;;;-2.30;99.90;;;;;;5056803;28;20769;-72
2023/02/27 07:37:02;;;;;;;0.30;0.30;;;-2.30;99.90;;;;;;5056886;28;20470;-72
2023/02/27 07:39:28;;;;;;;0.40;0.40;;;-2.20;99.90;;;;;;5056852;28;20421;-72
2023/02/27 07:41:56;;;;;;;0.30;0.30;;;-2.20;99.90;;;;;;5056497;28;20941;-72
2023/02/27 07:44:23;;;;;;;0.37;0.37;;;-2.10;99.90;;;;;;5056782;28;20429;-72
2023/02/27 07:46:50;;;;;;;0.40;0.40;;;-2.10;99.90;;;;;;5056322;28;20924;-72
2023/02/27 07:49:16;;;;;;;0.30;0.30;;;-2.00;99.90;;;;;;5056588;28;20450;-72
2023/02/27 07:51:43;;;;;;;2.23;0.67;;;-1.90;99.90;;;;;;5056673;28;20423;-72
2023/02/27 07:54:10;;;;;;;0.30;0.30;;;-1.90;99.90;;;;;;5056292;28;20973;-72
2023/02/27 07:56:36;;;;;;;0.53;0.40;;;-1.90;99.90;;;;;;5056488;28;20473;-72
2023/02/27 07:59:05;;;;;;;0.30;0.30;;;-1.80;99.90;;;;;;5056583;28;20416;-72
2023/02/27 08:01:31;;;;;;;0.30;0.30;;;-1.70;99.90;;;;;;5056475;28;20442;-72
2023/02/27 08:03:58;;;;;;;0.30;0.30;;;-1.70;99.90;;;;;;5056695;28;20417;-72
2023/02/27 08:06:25;;;;;;;0.30;0.30;;;-1.60;99.90;;;;;;5056088;28;20427;-72
2023/02/27 08:08:52;;;;;;;0.30;0.30;;;-1.50;99.90;;;;;;5056313;28;20474;-72
2023/02/27 08:11:18;;;;;;;0.37;0.37;;;-1.50;99.90;;;;;;5055915;28;20441;-72
2023/02/27 08:13:46;;;;;;;0.30;0.30;;;-1.40;99.90;;;;;;5056483;28;20443;-72
2023/02/27 08:16:14;;;;;;;0.30;0.30;;;-1.30;99.90;;;;;;5056221;28;20431;-72
2023/02/27 08:18:40;;;;;;;0.30;0.30;;;-1.20;99.90;;;;;;5055748;28;20528;-72
2023/02/27 08:21:07;;;;;;;0.30;0.27;;;-1.20;99.90;;;;;;5056071;28;20839;-72
2023/02/27 08:23:34;;;;;;;0.30;0.20;;;-1.10;99.90;;;;;;5056596;28;20463;-72
2023/02/27 08:26:01;;;;;;;0.30;0.30;;;-1.00;99.90;;;;;;5056014;28;20421;-72
2023/02/27 08:28:28;;;;;;;0.30;0.30;;;-1.00;99.90;;;;;;5055928;28;20478;-72
2023/02/27 08:30:55;;;;;;;0.30;0.30;;;-0.90;99.90;;;;;;5055804;28;20857;-72
2023/02/27 08:33:24;;;;;;;0.30;0.30;;;-0.80;99.90;;;;;;5055783;28;20473;-72
2023/02/27 08:35:53;;;;;;;0.57;0.30;;;-0.60;99.90;;;;;;5057341;28;20454;-72
2023/02/27 08:38:20;;;;;;;0.70;0.53;;;-0.50;99.90;;;;;;5055354;28;20460;-72
2023/02/27 08:40:50;;;;;;;0.30;0.30;;;-0.40;99.90;;;;;;5055700;28;20450;-73
2023/02/27 08:43:16;;;;;;;0.30;0.30;;;-0.20;99.90;;;;;;5055369;28;20413;-72
2023/02/27 08:45:43;;;;;;;2.87;0.60;;;-0.10;99.90;;;;;;5054817;28;20429;-72
2023/02/27 08:48:12;;;;;;;0.40;0.40;;;0.00;99.90;;;;;;5055521;28;20800;-72
2023/02/27 08:50:40;;;;;;;0.73;0.40;;;0.10;99.90;;;;;;5055429;28;20560;-72
2023/02/27 08:53:08;;;;;;;1.63;1.13;;;0.30;99.90;;;;;;5055462;28;20443;-72
2023/02/27 08:55:35;;;;;;;0.30;0.30;;;0.40;99.90;;;;;;5055444;28;20861;-72
2023/02/27 08:58:01;;;;;;;0.30;0.20;;;0.60;99.90;;;;;;5055014;28;20975;-72
2023/02/27 09:00:29;;;;;;;0.60;0.60;;;0.70;99.90;;;;;;5055296;28;20417;-72
2023/02/27 09:02:56;;;;;;;0.40;0.40;;;0.90;99.90;;;;;;5055273;28;20874;-73
2023/02/27 09:05:23;;;;;;;0.30;0.30;;;1.10;99.90;;;;;;5055255;28;20421;-72
2023/02/27 09:07:51;;;;;;;0.30;0.30;;;1.30;99.90;;;;;;5055109;28;20473;-75
2023/02/27 09:10:18;;;;;;;0.30;0.30;;;1.50;99.90;;;;;;5055087;28;20471;-72
2023/02/27 09:12:45;;;;;;;0.57;0.57;;;1.70;99.90;;;;;;5055102;28;20452;-72
2023/02/27 09:15:12;;;;;;;0.30;0.30;;;2.00;99.90;;;;;;5055026;28;20454;-73
2023/02/27 09:17:38;;;;;;;0.30;0.30;;;2.40;99.90;;;;;;5054960;28;20445;-73
2023/02/27 09:20:08;;;;;;;0.30;0.30;;;2.80;99.90;;;;;;5054918;28;20450;-73
2023/02/27 09:22:34;;;;;;;0.30;0.23;;;3.40;99.90;;;;;;5054916;28;20805;-73
2023/02/27 09:25:03;;;;;;;0.30;0.30;;;4.30;99.90;;;;;;5054869;28;20492;-73
2023/02/27 09:27:29;;;;;;;0.30;0.30;;;5.00;99.90;;;;;;5054706;28;20473;-73
2023/02/27 09:29:56;;;;;;;0.40;0.40;;;5.60;98.60;;;;;;5054710;28;20471;-73
2023/02/27 09:32:23;;;;;;;0.30;0.30;;;6.20;96.10;;;;;;5054690;28;20458;-73
2023/02/27 09:34:50;;;;;;;0.40;0.40;;;6.80;93.90;;;;;;5054679;28;20454;-73
2023/02/27 09:37:18;;;;;;;0.30;0.20;;;7.00;90.70;;;;;;5054330;28;20478;-74
2023/02/27 09:39:45;;;;;;;0.33;0.27;;;7.30;87.70;;;;;;5054613;28;20435;-73
2023/02/27 09:42:18;;;;;;;0.40;0.30;;;7.60;87.20;;;;;;5054571;28;20867;-73
2023/02/27 09:44:47;;;;;;;0.57;0.57;;;8.30;80.90;;;;;;5054542;28;20442;-73
2023/02/27 09:47:19;;;;;;;0.30;0.30;;;8.60;77.40;;;;;;5054391;28;20586;-73
2023/02/27 09:50:00;;;;;;;0.50;0.30;;;8.30;74.50;;;;;;5054381;28;20462;-73
2023/02/27 09:52:28;;;;;;;0.40;0.37;;;8.10;73.00;;;;;;5054400;28;20431;-74
2023/02/27 09:54:55;;;;;;;0.40;0.40;;;7.70;72.90;;;;;;5054174;28;20431;-73
2023/02/27 09:57:33;;;;;;;1.23;1.10;;;7.50;72.40;;;;;;5054152;28;20471;-73
2023/02/27 10:00:05;;;;;;;0.30;0.30;;;7.60;73.40;;;;;;5054299;28;20799;-73
2023/02/27 10:02:42;;;;;;;0.60;0.30;;;7.50;71.10;;;;;;5054167;28;21014;-74
2023/02/27 10:05:22;;;;;;;0.50;0.40;;;7.40;70.60;;;;;;5053884;28;20913;-73
2023/02/27 10:07:57;;;;;;;0.40;0.33;;;7.40;72.50;;;;;;5054023;28;20502;-74
2023/02/27 10:10:31;;;;;;;0.53;0.30;;;7.10;69.00;;;;;;5054029;28;20565;-74
2023/02/27 10:13:27;;;;;;;0.40;0.40;;;6.90;70.90;;;;;;5054020;28;20438;-73
2023/02/27 10:15:54;;;;;;;0.97;0.50;;;6.40;70.20;;;;;;5053962;28;20446;-73
2023/02/27 10:18:25;;;;;;;0.77;0.40;;;5.90;70.30;;;;;;5054106;28;20474;-73
2023/02/27 10:20:56;;;;;;;0.30;0.30;;;5.70;70.80;;;;;;5053894;28;20431;-73
2023/02/27 10:23:31;;;;;;;0.60;0.43;;;5.90;72.00;;;;;;5053850;28;20431;-74
2023/02/27 10:25:59;;;;;;;0.30;0.30;;;6.00;72.10;;;;;;5053819;28;20435;-74
2023/02/27 10:28:28;;;;;;;0.40;0.40;;;6.40;70.30;;;;;;5053678;28;20474;-74
2023/02/27 10:30:58;;;;;;;1.80;0.30;;;6.80;69.20;;;;;;5053575;28;20486;-74
2023/02/27 10:33:32;;;;;;;0.40;0.40;;;7.30;65.40;;;;;;5053709;28;20426;-74
2023/02/27 10:35:58;;;;;;;0.30;0.30;;;7.80;61.80;;;;;;5054711;28;20434;-74
2023/02/27 10:38:31;;;;;;;0.40;0.30;;;8.40;61.20;;;;;;5053320;28;20485;-74
2023/02/27 10:41:00;;;;;;;0.30;0.30;;;9.70;58.60;;;;;;5053589;28;20524;-74
2023/02/27 10:43:28;;;;;;;0.40;0.40;;;10.90;56.10;;;;;;5053217;28;20453;-74
2023/02/27 10:45:55;;;;;;;0.50;0.47;;;11.80;53.10;;;;;;5053134;28;20964;-74
2023/02/27 10:48:22;;;;;;;0.40;0.30;;;11.80;51.60;;;;;;5053373;28;20477;-74
2023/02/27 10:50:50;;;;;;;0.60;0.30;;;12.10;50.00;;;;;;5053103;28;20910;-74
2023/02/27 10:53:21;;;;;;;3.03;0.63;;;11.50;49.80;;;;;;5053392;28;20486;-74
2023/02/27 10:56:00;;;;;;;0.30;0.20;;;9.40;50.50;;;;;;5053406;28;20463;-75
2023/02/27 10:58:32;;;;;;;0.67;0.40;;;6.70;54.20;;;;;;5053310;28;20867;-74
2023/02/27 11:01:01;;;;;;;0.30;0.30;;;5.40;57.80;;;;;;5053337;28;20470;-74
2023/02/27 11:03:29;;;;;;;0.30;0.30;;;5.20;59.80;;;;;;5053271;28;20482;-74
2023/02/27 11:06:00;;;;;;;0.30;0.30;;;4.70;60.20;;;;;;5053206;28;20446;-74
2023/02/27 11:08:30;;;;;;;0.30;0.30;;;4.00;61.90;;;;;;5058857;28;20981;-74
2023/02/27 11:11:00;;;;;;;0.30;0.30;;;3.90;64.40;;;;;;5059486;28;20965;-74
2023/02/27 11:13:31;;;;;;;0.40;0.40;;;4.70;65.70;;;;;;5059530;28;20941;-74
2023/02/27 11:16:07;;;;;;;0.60;0.30;;;5.40;64.20;;;;;;5059845;28;20437;-74
2023/02/27 11:18:36;;;;;;;0.30;0.30;;;5.40;61.70;;;;;;5059467;28;20465;-74
2023/02/27 11:21:21;;;;;;;1.13;0.47;;;5.00;62.60;;;;;;5059790;28;20806;-74
2023/02/27 11:24:00;;;;;;;1.57;0.70;;;4.60;64.30;;;;;;5060791;28;20445;-74
2023/02/27 11:26:31;;;;;;;1.77;0.40;;;4.70;65.70;;;;;;5059710;28;20450;-74
2023/02/27 11:29:13;;;;;;;0.40;0.30;;;4.60;65.70;;;;;;5059750;28;20434;-74
2023/02/27 11:31:45;;;;;;;0.30;0.30;;;4.80;66.10;;;;;;5059649;28;20470;-74
2023/02/27 11:34:27;;;;;;;0.30;0.20;;;5.10;64.50;;;;;;5059848;28;20454;-74
2023/02/27 11:36:59;;;;;;;0.93;0.30;;;5.00;64.40;;;;;;5059847;28;20481;-74
2023/02/27 11:39:29;;;;;;;1.07;0.50;;;4.80;65.00;;;;;;5059472;28;21008;-74
2023/02/27 11:41:58;;;;;;;0.30;0.30;;;4.60;65.00;;;;;;5059354;28;20898;-74
2023/02/27 11:44:29;;;;;;;0.30;0.20;;;4.40;66.20;;;;;;5059619;28;20457;-74
2023/02/27 11:47:13;;;;;;;0.30;0.30;;;4.50;66.80;;;;;;5059497;28;20470;-74
2023/02/27 11:49:57;;;;;;;2.37;0.73;;;4.40;66.00;;;;;;5058378;28;20454;-74
2023/02/27 11:52:33;;;;;;;0.33;0.33;;;4.40;66.50;;;;;;5059699;28;20876;-74
2023/02/27 11:55:03;;;;;;;0.30;0.30;;;4.30;66.50;;;;;;5059529;28;20430;-74
2023/02/27 11:57:34;;;;;;;0.30;0.30;;;4.30;66.20;;;;;;5059501;28;20466;-74
2023/02/27 12:00:08;;;;;;;0.30;0.30;;;4.00;66.70;;;;;;5059224;28;20921;-74
2023/02/27 12:02:45;;;;;;;0.30;0.30;;;3.70;67.60;;;;;;5059218;28;20905;-74
2023/02/27 12:05:17;;;;;;;0.40;0.40;;;3.50;68.70;;;;;;5059712;28;20466;-74
2023/02/27 12:07:51;;;;;;;0.87;0.50;;;3.40;69.40;;;;;;5059321;28;20470;-74
2023/02/27 12:10:21;;;;;;;0.30;0.30;;;3.10;69.30;;;;;;5059427;28;20446;-74
2023/02/27 12:12:50;;;;;;;0.30;0.27;;;3.00;70.60;;;;;;5059004;28;20995;-74
2023/02/27 12:15:27;;;;;;;0.40;0.40;;;2.90;70.30;;;;;;5059327;28;20489;-74
2023/02/27 12:18:04;;;;;;;0.30;0.30;;;2.90;70.30;;;;;;5058594;28;21004;-74
2023/02/27 12:20:36;;;;;;;4.93;1.80;;;2.90;70.50;;;;;;5055879;28;20434;-74
2023/02/27 12:23:13;;;;;;;0.80;0.33;;;3.10;71.00;;;;;;5056136;28;20431;-74
2023/02/27 12:25:45;;;;;;;0.73;0.60;;;3.40;71.20;;;;;;5056078;28;20435;-74
2023/02/27 12:28:21;;;;;;;0.30;0.30;;;3.60;70.40;;;;;;5055977;28;20500;-74
2023/02/27 12:31:10;;;;;;;0.30;0.30;;;3.40;69.20;;;;;;5055892;28;20445;-74
2023/02/27 12:33:44;;;;;;;0.60;0.40;;;3.20;69.50;;;;;;5055898;28;20430;-74
2023/02/27 12:36:13;;;;;;;0.50;0.50;;;3.20;70.20;;;;;;5055578;28;21104;-74
2023/02/27 12:38:39;;;;;;;0.90;0.40;;;3.10;70.30;;;;;;5054634;28;20490;-73
2023/02/27 12:41:40;;;;;;;0.30;0.20;;;3.00;70.40;;;;;;5055772;28;20455;-74
2023/02/27 12:44:28;;;;;;;0.77;0.77;;;3.10;70.80;;;;;;5045989;28;20458;-74
2023/02/27 12:47:07;;;;;;;0.40;0.40;;;3.00;70.70;;;;;;5055600;28;20473;-74
2023/02/27 12:49:41;;;;;;;0.47;0.40;;;3.10;71.00;;;;;;5055672;28;20466;-74
2023/02/27 12:52:20;;;;;;;0.30;0.30;;;3.20;70.20;;;;;;5055510;28;20462;-73
2023/02/27 12:54:56;;;;;;;1.23;0.67;;;3.30;69.50;;;;;;5055592;28;20430;-73
2023/02/27 12:57:35;;;;;;;0.30;0.30;;;3.40;69.50;;;;;;5055458;28;20502;-74
2023/02/27 13:00:10;;;;;;;0.40;0.40;;;3.40;68.70;;;;;;5055440;28;20431;-74
2023/02/27 13:02:58;;;;;;;0.30;0.30;;;3.30;68.30;;;;;;5055409;28;20831;-74
2023/02/27 13:05:32;;;;;;;0.37;0.33;;;3.00;68.50;;;;;;5055394;28;20445;-74
2023/02/27 13:08:32;;;;;;;0.40;0.40;;;2.90;69.80;;;;;;5055144;28;20465;-73
2023/02/27 13:11:08;;;;;;;0.30;0.30;;;2.80;69.90;;;;;;5055152;28;20796;-73